sensor_id;sensor_type;location;lat;lon;timestamp;P1;durP1;ratioP1;P2;durP2;ratioP2
46377;SDS011;32083;47.360;9.650;2023-07-16T00:01:38;6.38;;;3.75;;
46377;SDS011;32083;47.360;9.650;2023-07-16T00:04:04;5.10;;;3.38;;
46377;SDS011;32083;47.360;9.650;2023-07-16T00:06:30;5.00;;;3.63;;
46377;SDS011;32083;47.360;9.650;2023-07-16T00:08:55;5.57;;;3.50;;
46377;SDS011;32083;47.360;9.650;2023-07-16T00:11:21;3.85;;;3.22;;
46377;SDS011;32083;47.360;9.650;2023-07-16T00:13:49;4.85;;;3.80;;
46377;SDS011;32083;47.360;9.650;2023-07-16T00:16:15;3.80;;;2.72;;
46377;SDS011;32083;47.360;9.650;2023-07-16T00:18:41;4.07;;;3.30;;
46377;SDS011;32083;47.360;9.650;2023-07-16T00:21:09;4.55;;;3.20;;
46377;SDS011;32083;47.360;9.650;2023-07-16T00:23:35;3.35;;;2.83;;
46377;SDS011;32083;47.360;9.650;2023-07-16T00:26:02;3.65;;;3.15;;
46377;SDS011;32083;47.360;9.650;2023-07-16T00:28:30;3.92;;;2.33;;
46377;SDS011;32083;47.360;9.650;2023-07-16T00:30:55;4.05;;;2.60;;
46377;SDS011;32083;47.360;9.650;2023-07-16T00:33:21;3.75;;;2.30;;
46377;SDS011;32083;47.360;9.650;2023-07-16T00:35:47;2.40;;;1.98;;
46377;SDS011;32083;47.360;9.650;2023-07-16T00:38:14;3.42;;;2.78;;
46377;SDS011;32083;47.360;9.650;2023-07-16T00:40:42;3.05;;;2.58;;
46377;SDS011;32083;47.360;9.650;2023-07-16T00:43:07;3.00;;;2.42;;
46377;SDS011;32083;47.360;9.650;2023-07-16T00:45:33;3.88;;;2.40;;
46377;SDS011;32083;47.360;9.650;2023-07-16T00:47:59;2.70;;;2.17;;
46377;SDS011;32083;47.360;9.650;2023-07-16T00:50:24;2.75;;;2.00;;
46377;SDS011;32083;47.360;9.650;2023-07-16T00:52:50;3.33;;;2.30;;
46377;SDS011;32083;47.360;9.650;2023-07-16T00:55:16;4.50;;;2.10;;
46377;SDS011;32083;47.360;9.650;2023-07-16T00:57:42;3.83;;;2.30;;
46377;SDS011;32083;47.360;9.650;2023-07-16T01:00:10;2.40;;;2.05;;
46377;SDS011;32083;47.360;9.650;2023-07-16T01:02:36;2.72;;;2.00;;
46377;SDS011;32083;47.360;9.650;2023-07-16T01:05:02;1.80;;;1.40;;
46377;SDS011;32083;47.360;9.650;2023-07-16T01:07:28;1.42;;;1.20;;
46377;SDS011;32083;47.360;9.650;2023-07-16T01:09:56;1.58;;;1.35;;
46377;SDS011;32083;47.360;9.650;2023-07-16T01:12:22;1.80;;;1.20;;
46377;SDS011;32083;47.360;9.650;2023-07-16T01:14:50;3.05;;;1.30;;
46377;SDS011;32083;47.360;9.650;2023-07-16T01:17:17;2.13;;;1.10;;
46377;SDS011;32083;47.360;9.650;2023-07-16T01:19:46;1.50;;;0.95;;
46377;SDS011;32083;47.360;9.650;2023-07-16T01:25:12;1.20;;;0.85;;
46377;SDS011;32083;47.360;9.650;2023-07-16T01:30:48;1.25;;;0.90;;
46377;SDS011;32083;47.360;9.650;2023-07-16T01:33:17;2.30;;;1.00;;
46377;SDS011;32083;47.360;9.650;2023-07-16T01:35:45;1.35;;;0.80;;
46377;SDS011;32083;47.360;9.650;2023-07-16T01:38:13;1.30;;;0.95;;
46377;SDS011;32083;47.360;9.650;2023-07-16T01:40:41;0.90;;;0.80;;
46377;SDS011;32083;47.360;9.650;2023-07-16T01:43:07;2.55;;;1.55;;
46377;SDS011;32083;47.360;9.650;2023-07-16T01:45:32;2.00;;;1.30;;
46377;SDS011;32083;47.360;9.650;2023-07-16T01:50:56;1.35;;;0.90;;
46377;SDS011;32083;47.360;9.650;2023-07-16T01:53:22;2.75;;;1.15;;
46377;SDS011;32083;47.360;9.650;2023-07-16T01:55:47;1.17;;;0.93;;
46377;SDS011;32083;47.360;9.650;2023-07-16T01:58:13;1.38;;;1.20;;
46377;SDS011;32083;47.360;9.650;2023-07-16T02:00:39;1.38;;;1.05;;
46377;SDS011;32083;47.360;9.650;2023-07-16T02:03:05;1.00;;;0.90;;
46377;SDS011;32083;47.360;9.650;2023-07-16T02:05:30;0.98;;;0.77;;
46377;SDS011;32083;47.360;9.650;2023-07-16T02:07:56;1.05;;;0.90;;
46377;SDS011;32083;47.360;9.650;2023-07-16T02:10:22;1.40;;;1.00;;
46377;SDS011;32083;47.360;9.650;2023-07-16T02:12:47;1.20;;;1.10;;
46377;SDS011;32083;47.360;9.650;2023-07-16T02:15:13;1.40;;;1.08;;
46377;SDS011;32083;47.360;9.650;2023-07-16T02:17:39;1.35;;;1.13;;
46377;SDS011;32083;47.360;9.650;2023-07-16T02:20:05;1.42;;;1.05;;
46377;SDS011;32083;47.360;9.650;2023-07-16T02:22:31;1.50;;;1.10;;
46377;SDS011;32083;47.360;9.650;2023-07-16T02:24:58;1.67;;;1.20;;
46377;SDS011;32083;47.360;9.650;2023-07-16T02:27:24;1.50;;;1.15;;
46377;SDS011;32083;47.360;9.650;2023-07-16T02:29:50;1.20;;;1.10;;
46377;SDS011;32083;47.360;9.650;2023-07-16T02:32:15;1.73;;;1.10;;
46377;SDS011;32083;47.360;9.650;2023-07-16T02:34:41;1.63;;;1.17;;
46377;SDS011;32083;47.360;9.650;2023-07-16T02:37:07;1.48;;;1.25;;
46377;SDS011;32083;47.360;9.650;2023-07-16T02:39:33;1.45;;;1.27;;
46377;SDS011;32083;47.360;9.650;2023-07-16T02:41:59;2.53;;;1.27;;
46377;SDS011;32083;47.360;9.650;2023-07-16T02:44:25;2.65;;;1.40;;
46377;SDS011;32083;47.360;9.650;2023-07-16T02:46:50;1.48;;;1.10;;
46377;SDS011;32083;47.360;9.650;2023-07-16T02:49:16;4.50;;;1.30;;
46377;SDS011;32083;47.360;9.650;2023-07-16T02:51:42;2.70;;;1.95;;
46377;SDS011;32083;47.360;9.650;2023-07-16T02:54:08;3.58;;;1.17;;
46377;SDS011;32083;47.360;9.650;2023-07-16T02:56:34;1.83;;;1.48;;
46377;SDS011;32083;47.360;9.650;2023-07-16T02:58:59;2.40;;;1.23;;
46377;SDS011;32083;47.360;9.650;2023-07-16T03:01:25;2.65;;;1.20;;
46377;SDS011;32083;47.360;9.650;2023-07-16T03:03:51;4.07;;;1.20;;
46377;SDS011;32083;47.360;9.650;2023-07-16T03:06:17;2.40;;;1.80;;
46377;SDS011;32083;47.360;9.650;2023-07-16T03:08:43;2.65;;;1.33;;
46377;SDS011;32083;47.360;9.650;2023-07-16T03:11:10;2.47;;;2.05;;
46377;SDS011;32083;47.360;9.650;2023-07-16T03:13:36;2.63;;;1.48;;
46377;SDS011;32083;47.360;9.650;2023-07-16T03:16:02;1.63;;;1.08;;
46377;SDS011;32083;47.360;9.650;2023-07-16T03:18:31;2.63;;;1.50;;
46377;SDS011;32083;47.360;9.650;2023-07-16T03:20:57;1.67;;;1.23;;
46377;SDS011;32083;47.360;9.650;2023-07-16T03:23:23;1.77;;;1.17;;
46377;SDS011;32083;47.360;9.650;2023-07-16T03:25:50;3.20;;;1.52;;
46377;SDS011;32083;47.360;9.650;2023-07-16T03:28:16;2.05;;;1.73;;
46377;SDS011;32083;47.360;9.650;2023-07-16T03:30:48;1.92;;;1.38;;
46377;SDS011;32083;47.360;9.650;2023-07-16T03:35:44;2.33;;;1.60;;
46377;SDS011;32083;47.360;9.650;2023-07-16T03:38:11;2.10;;;1.67;;
46377;SDS011;32083;47.360;9.650;2023-07-16T03:40:37;2.45;;;1.75;;
46377;SDS011;32083;47.360;9.650;2023-07-16T03:43:03;2.80;;;1.90;;
46377;SDS011;32083;47.360;9.650;2023-07-16T03:45:29;2.45;;;1.50;;
46377;SDS011;32083;47.360;9.650;2023-07-16T03:47:55;3.38;;;1.80;;
46377;SDS011;32083;47.360;9.650;2023-07-16T03:50:21;2.05;;;1.67;;
46377;SDS011;32083;47.360;9.650;2023-07-16T03:52:46;2.55;;;1.38;;
46377;SDS011;32083;47.360;9.650;2023-07-16T03:55:12;2.40;;;1.48;;
46377;SDS011;32083;47.360;9.650;2023-07-16T03:57:38;1.80;;;1.35;;
46377;SDS011;32083;47.360;9.650;2023-07-16T04:00:04;1.90;;;1.40;;
46377;SDS011;32083;47.360;9.650;2023-07-16T04:02:34;2.13;;;1.80;;
46377;SDS011;32083;47.360;9.650;2023-07-16T04:05:00;1.40;;;1.30;;
46377;SDS011;32083;47.360;9.650;2023-07-16T04:07:25;2.53;;;1.63;;
46377;SDS011;32083;47.360;9.650;2023-07-16T04:09:51;1.52;;;1.10;;
46377;SDS011;32083;47.360;9.650;2023-07-16T04:12:17;2.05;;;1.40;;
46377;SDS011;32083;47.360;9.650;2023-07-16T04:14:43;1.80;;;1.70;;
46377;SDS011;32083;47.360;9.650;2023-07-16T04:17:09;2.00;;;1.67;;
46377;SDS011;32083;47.360;9.650;2023-07-16T04:19:35;2.05;;;1.67;;
46377;SDS011;32083;47.360;9.650;2023-07-16T04:22:01;2.35;;;1.60;;
46377;SDS011;32083;47.360;9.650;2023-07-16T04:24:27;1.77;;;1.42;;
46377;SDS011;32083;47.360;9.650;2023-07-16T04:26:53;1.80;;;1.52;;
46377;SDS011;32083;47.360;9.650;2023-07-16T04:29:19;1.67;;;1.48;;
46377;SDS011;32083;47.360;9.650;2023-07-16T04:31:45;1.70;;;1.35;;
46377;SDS011;32083;47.360;9.650;2023-07-16T04:34:11;1.95;;;1.52;;
46377;SDS011;32083;47.360;9.650;2023-07-16T04:36:36;6.03;;;2.28;;
46377;SDS011;32083;47.360;9.650;2023-07-16T04:39:03;2.17;;;1.65;;
46377;SDS011;32083;47.360;9.650;2023-07-16T04:41:29;2.00;;;1.40;;
46377;SDS011;32083;47.360;9.650;2023-07-16T04:43:55;2.55;;;1.83;;
46377;SDS011;32083;47.360;9.650;2023-07-16T04:46:21;1.60;;;1.23;;
46377;SDS011;32083;47.360;9.650;2023-07-16T04:48:46;1.63;;;1.30;;
46377;SDS011;32083;47.360;9.650;2023-07-16T04:51:12;1.85;;;1.67;;
46377;SDS011;32083;47.360;9.650;2023-07-16T04:53:38;2.25;;;1.83;;
46377;SDS011;32083;47.360;9.650;2023-07-16T04:56:03;2.42;;;1.33;;
46377;SDS011;32083;47.360;9.650;2023-07-16T04:58:31;1.77;;;1.55;;
46377;SDS011;32083;47.360;9.650;2023-07-16T05:00:57;2.05;;;1.42;;
46377;SDS011;32083;47.360;9.650;2023-07-16T05:03:23;1.77;;;1.40;;
46377;SDS011;32083;47.360;9.650;2023-07-16T05:05:48;2.88;;;1.20;;
46377;SDS011;32083;47.360;9.650;2023-07-16T05:08:14;1.85;;;1.20;;
46377;SDS011;32083;47.360;9.650;2023-07-16T05:10:40;1.38;;;1.10;;
46377;SDS011;32083;47.360;9.650;2023-07-16T05:13:05;1.85;;;1.55;;
46377;SDS011;32083;47.360;9.650;2023-07-16T05:15:32;1.80;;;1.23;;
46377;SDS011;32083;47.360;9.650;2023-07-16T05:17:57;1.85;;;1.35;;
46377;SDS011;32083;47.360;9.650;2023-07-16T05:20:23;1.73;;;1.40;;
46377;SDS011;32083;47.360;9.650;2023-07-16T05:22:50;1.60;;;1.50;;
46377;SDS011;32083;47.360;9.650;2023-07-16T05:25:16;2.03;;;1.70;;
46377;SDS011;32083;47.360;9.650;2023-07-16T05:27:41;1.65;;;1.50;;
46377;SDS011;32083;47.360;9.650;2023-07-16T05:30:07;2.05;;;1.77;;
46377;SDS011;32083;47.360;9.650;2023-07-16T05:32:33;1.58;;;1.20;;
46377;SDS011;32083;47.360;9.650;2023-07-16T05:34:59;2.47;;;1.58;;
46377;SDS011;32083;47.360;9.650;2023-07-16T05:37:25;1.50;;;1.25;;
46377;SDS011;32083;47.360;9.650;2023-07-16T05:39:51;3.13;;;1.70;;
46377;SDS011;32083;47.360;9.650;2023-07-16T05:42:17;2.40;;;1.40;;
46377;SDS011;32083;47.360;9.650;2023-07-16T05:44:42;1.98;;;1.30;;
46377;SDS011;32083;47.360;9.650;2023-07-16T05:47:09;2.17;;;1.50;;
46377;SDS011;32083;47.360;9.650;2023-07-16T05:49:35;1.83;;;1.30;;
46377;SDS011;32083;47.360;9.650;2023-07-16T05:52:01;1.85;;;1.60;;
46377;SDS011;32083;47.360;9.650;2023-07-16T05:54:27;3.88;;;2.08;;
46377;SDS011;32083;47.360;9.650;2023-07-16T05:56:52;1.35;;;1.20;;
46377;SDS011;32083;47.360;9.650;2023-07-16T05:59:18;1.45;;;1.20;;
46377;SDS011;32083;47.360;9.650;2023-07-16T06:01:44;1.83;;;1.45;;
46377;SDS011;32083;47.360;9.650;2023-07-16T06:04:09;2.50;;;1.58;;
46377;SDS011;32083;47.360;9.650;2023-07-16T06:06:35;3.25;;;1.48;;
46377;SDS011;32083;47.360;9.650;2023-07-16T06:09:01;2.05;;;1.67;;
46377;SDS011;32083;47.360;9.650;2023-07-16T06:11:27;2.45;;;1.38;;
46377;SDS011;32083;47.360;9.650;2023-07-16T06:13:53;1.73;;;1.50;;
46377;SDS011;32083;47.360;9.650;2023-07-16T06:16:19;2.17;;;1.70;;
46377;SDS011;32083;47.360;9.650;2023-07-16T06:18:45;1.58;;;1.42;;
46377;SDS011;32083;47.360;9.650;2023-07-16T06:21:11;2.22;;;1.50;;
46377;SDS011;32083;47.360;9.650;2023-07-16T06:23:37;4.55;;;1.60;;
46377;SDS011;32083;47.360;9.650;2023-07-16T06:26:03;1.85;;;1.48;;
46377;SDS011;32083;47.360;9.650;2023-07-16T06:28:31;2.00;;;1.77;;
46377;SDS011;32083;47.360;9.650;2023-07-16T06:30:59;1.70;;;1.45;;
46377;SDS011;32083;47.360;9.650;2023-07-16T06:33:25;1.40;;;1.27;;
46377;SDS011;32083;47.360;9.650;2023-07-16T06:35:52;2.15;;;1.65;;
46377;SDS011;32083;47.360;9.650;2023-07-16T06:38:18;1.65;;;1.25;;
46377;SDS011;32083;47.360;9.650;2023-07-16T06:40:51;1.75;;;1.65;;
46377;SDS011;32083;47.360;9.650;2023-07-16T06:43:20;1.98;;;1.30;;
46377;SDS011;32083;47.360;9.650;2023-07-16T06:45:46;2.65;;;1.33;;
46377;SDS011;32083;47.360;9.650;2023-07-16T06:48:13;1.83;;;1.50;;
46377;SDS011;32083;47.360;9.650;2023-07-16T06:50:39;3.28;;;1.60;;
46377;SDS011;32083;47.360;9.650;2023-07-16T06:53:05;3.17;;;1.73;;
46377;SDS011;32083;47.360;9.650;2023-07-16T06:55:30;2.45;;;1.45;;
46377;SDS011;32083;47.360;9.650;2023-07-16T06:57:56;2.15;;;1.77;;
46377;SDS011;32083;47.360;9.650;2023-07-16T07:00:22;3.00;;;1.52;;
46377;SDS011;32083;47.360;9.650;2023-07-16T07:02:48;2.83;;;1.50;;
46377;SDS011;32083;47.360;9.650;2023-07-16T07:05:14;2.63;;;1.88;;
46377;SDS011;32083;47.360;9.650;2023-07-16T07:07:39;2.20;;;1.35;;
46377;SDS011;32083;47.360;9.650;2023-07-16T07:10:05;7.00;;;2.05;;
46377;SDS011;32083;47.360;9.650;2023-07-16T07:12:33;1.88;;;1.40;;
46377;SDS011;32083;47.360;9.650;2023-07-16T07:15:05;2.83;;;2.05;;
46377;SDS011;32083;47.360;9.650;2023-07-16T07:17:33;1.98;;;1.50;;
46377;SDS011;32083;47.360;9.650;2023-07-16T07:20:00;1.92;;;1.63;;
46377;SDS011;32083;47.360;9.650;2023-07-16T07:22:26;2.42;;;1.60;;
46377;SDS011;32083;47.360;9.650;2023-07-16T07:24:52;4.20;;;1.55;;
46377;SDS011;32083;47.360;9.650;2023-07-16T07:27:19;3.83;;;2.55;;
46377;SDS011;32083;47.360;9.650;2023-07-16T07:29:45;2.08;;;1.55;;
46377;SDS011;32083;47.360;9.650;2023-07-16T07:32:12;2.40;;;1.65;;
46377;SDS011;32083;47.360;9.650;2023-07-16T07:34:38;2.30;;;1.60;;
46377;SDS011;32083;47.360;9.650;2023-07-16T07:37:05;2.00;;;1.50;;
46377;SDS011;32083;47.360;9.650;2023-07-16T07:39:31;2.55;;;1.60;;
46377;SDS011;32083;47.360;9.650;2023-07-16T07:41:57;2.58;;;1.75;;
46377;SDS011;32083;47.360;9.650;2023-07-16T07:44:23;1.85;;;1.50;;
46377;SDS011;32083;47.360;9.650;2023-07-16T07:46:48;1.80;;;1.40;;
46377;SDS011;32083;47.360;9.650;2023-07-16T07:49:14;1.77;;;1.50;;
46377;SDS011;32083;47.360;9.650;2023-07-16T07:51:40;1.42;;;1.33;;
46377;SDS011;32083;47.360;9.650;2023-07-16T07:54:05;1.55;;;1.33;;
46377;SDS011;32083;47.360;9.650;2023-07-16T07:56:31;1.90;;;1.33;;
46377;SDS011;32083;47.360;9.650;2023-07-16T07:58:57;3.13;;;1.67;;
46377;SDS011;32083;47.360;9.650;2023-07-16T08:01:23;1.65;;;1.40;;
46377;SDS011;32083;47.360;9.650;2023-07-16T08:03:48;2.60;;;1.73;;
46377;SDS011;32083;47.360;9.650;2023-07-16T08:06:14;2.65;;;1.70;;
46377;SDS011;32083;47.360;9.650;2023-07-16T08:08:40;1.70;;;1.52;;
46377;SDS011;32083;47.360;9.650;2023-07-16T08:11:06;2.25;;;1.55;;
46377;SDS011;32083;47.360;9.650;2023-07-16T08:13:31;2.20;;;1.67;;
46377;SDS011;32083;47.360;9.650;2023-07-16T08:15:57;1.83;;;1.63;;
46377;SDS011;32083;47.360;9.650;2023-07-16T08:18:23;3.92;;;1.85;;
46377;SDS011;32083;47.360;9.650;2023-07-16T08:20:48;2.00;;;1.30;;
46377;SDS011;32083;47.360;9.650;2023-07-16T08:23:14;1.88;;;1.60;;
46377;SDS011;32083;47.360;9.650;2023-07-16T08:25:42;2.20;;;1.80;;
46377;SDS011;32083;47.360;9.650;2023-07-16T08:28:08;1.77;;;1.30;;
46377;SDS011;32083;47.360;9.650;2023-07-16T08:30:35;1.98;;;1.58;;
46377;SDS011;32083;47.360;9.650;2023-07-16T08:33:03;1.75;;;1.60;;
46377;SDS011;32083;47.360;9.650;2023-07-16T08:35:28;1.88;;;1.55;;
46377;SDS011;32083;47.360;9.650;2023-07-16T08:38:16;1.95;;;1.23;;
46377;SDS011;32083;47.360;9.650;2023-07-16T08:40:42;2.40;;;1.63;;
46377;SDS011;32083;47.360;9.650;2023-07-16T08:43:12;2.13;;;1.50;;
46377;SDS011;32083;47.360;9.650;2023-07-16T08:45:39;1.98;;;1.60;;
46377;SDS011;32083;47.360;9.650;2023-07-16T08:48:06;2.28;;;1.55;;
46377;SDS011;32083;47.360;9.650;2023-07-16T08:50:34;1.52;;;1.40;;
46377;SDS011;32083;47.360;9.650;2023-07-16T08:53:03;2.20;;;1.60;;
46377;SDS011;32083;47.360;9.650;2023-07-16T08:55:31;3.25;;;1.60;;
46377;SDS011;32083;47.360;9.650;2023-07-16T08:57:58;2.45;;;1.80;;
46377;SDS011;32083;47.360;9.650;2023-07-16T09:00:25;1.42;;;1.23;;
46377;SDS011;32083;47.360;9.650;2023-07-16T09:02:52;2.40;;;1.75;;
46377;SDS011;32083;47.360;9.650;2023-07-16T09:05:21;2.55;;;1.80;;
46377;SDS011;32083;47.360;9.650;2023-07-16T09:07:48;2.10;;;1.60;;
46377;SDS011;32083;47.360;9.650;2023-07-16T09:10:14;1.50;;;1.30;;
46377;SDS011;32083;47.360;9.650;2023-07-16T09:12:46;3.65;;;1.58;;
46377;SDS011;32083;47.360;9.650;2023-07-16T09:15:16;2.08;;;1.60;;
46377;SDS011;32083;47.360;9.650;2023-07-16T09:17:48;2.17;;;1.45;;
46377;SDS011;32083;47.360;9.650;2023-07-16T09:20:15;1.90;;;1.70;;
46377;SDS011;32083;47.360;9.650;2023-07-16T09:22:42;1.92;;;1.45;;
46377;SDS011;32083;47.360;9.650;2023-07-16T09:25:12;1.85;;;1.67;;
46377;SDS011;32083;47.360;9.650;2023-07-16T09:27:39;1.88;;;1.58;;
46377;SDS011;32083;47.360;9.650;2023-07-16T09:30:05;2.17;;;1.70;;
46377;SDS011;32083;47.360;9.650;2023-07-16T09:32:33;2.08;;;1.52;;
46377;SDS011;32083;47.360;9.650;2023-07-16T09:37:40;2.53;;;1.80;;
46377;SDS011;32083;47.360;9.650;2023-07-16T09:40:09;2.05;;;1.65;;
46377;SDS011;32083;47.360;9.650;2023-07-16T09:43:34;2.10;;;1.60;;
46377;SDS011;32083;47.360;9.650;2023-07-16T09:46:02;1.95;;;1.50;;
46377;SDS011;32083;47.360;9.650;2023-07-16T09:48:47;2.65;;;1.88;;
46377;SDS011;32083;47.360;9.650;2023-07-16T09:51:19;1.85;;;1.50;;
46377;SDS011;32083;47.360;9.650;2023-07-16T09:54:06;1.50;;;1.38;;
46377;SDS011;32083;47.360;9.650;2023-07-16T09:56:36;1.63;;;1.42;;
46377;SDS011;32083;47.360;9.650;2023-07-16T09:59:06;1.50;;;1.40;;
46377;SDS011;32083;47.360;9.650;2023-07-16T10:01:40;2.78;;;1.40;;
46377;SDS011;32083;47.360;9.650;2023-07-16T10:04:59;2.85;;;1.73;;
46377;SDS011;32083;47.360;9.650;2023-07-16T10:07:58;2.17;;;1.67;;
46377;SDS011;32083;47.360;9.650;2023-07-16T10:10:54;1.75;;;1.50;;
46377;SDS011;32083;47.360;9.650;2023-07-16T10:13:49;1.67;;;1.33;;
46377;SDS011;32083;47.360;9.650;2023-07-16T10:16:25;2.90;;;1.42;;
46377;SDS011;32083;47.360;9.650;2023-07-16T10:19:14;1.70;;;1.50;;
46377;SDS011;32083;47.360;9.650;2023-07-16T10:21:57;1.83;;;1.42;;
46377;SDS011;32083;47.360;9.650;2023-07-16T10:24:32;3.17;;;1.73;;
46377;SDS011;32083;47.360;9.650;2023-07-16T10:27:07;2.28;;;1.58;;
46377;SDS011;32083;47.360;9.650;2023-07-16T10:29:37;2.10;;;1.90;;
46377;SDS011;32083;47.360;9.650;2023-07-16T10:32:31;2.33;;;1.40;;
46377;SDS011;32083;47.360;9.650;2023-07-16T10:35:02;2.20;;;1.92;;
46377;SDS011;32083;47.360;9.650;2023-07-16T10:37:55;3.33;;;1.70;;
46377;SDS011;32083;47.360;9.650;2023-07-16T10:40:23;1.73;;;1.42;;
46377;SDS011;32083;47.360;9.650;2023-07-16T10:42:52;2.05;;;1.77;;
46377;SDS011;32083;47.360;9.650;2023-07-16T10:45:21;2.13;;;1.70;;
46377;SDS011;32083;47.360;9.650;2023-07-16T10:47:53;1.45;;;1.30;;
46377;SDS011;32083;47.360;9.650;2023-07-16T10:50:20;2.70;;;1.63;;
46377;SDS011;32083;47.360;9.650;2023-07-16T10:52:52;2.67;;;1.65;;
46377;SDS011;32083;47.360;9.650;2023-07-16T10:55:40;2.80;;;1.60;;
46377;SDS011;32083;47.360;9.650;2023-07-16T10:58:11;2.05;;;1.85;;
46377;SDS011;32083;47.360;9.650;2023-07-16T11:01:10;2.13;;;1.67;;
46377;SDS011;32083;47.360;9.650;2023-07-16T11:03:36;1.60;;;1.50;;
46377;SDS011;32083;47.360;9.650;2023-07-16T11:06:06;3.72;;;1.75;;
46377;SDS011;32083;47.360;9.650;2023-07-16T11:08:33;4.32;;;1.80;;
46377;SDS011;32083;47.360;9.650;2023-07-16T11:10:59;2.63;;;1.70;;
46377;SDS011;32083;47.360;9.650;2023-07-16T11:13:30;1.80;;;1.58;;
46377;SDS011;32083;47.360;9.650;2023-07-16T11:15:57;2.28;;;1.67;;
46377;SDS011;32083;47.360;9.650;2023-07-16T11:18:35;2.60;;;2.00;;
46377;SDS011;32083;47.360;9.650;2023-07-16T11:21:01;2.03;;;1.80;;
46377;SDS011;32083;47.360;9.650;2023-07-16T11:23:29;2.97;;;1.63;;
46377;SDS011;32083;47.360;9.650;2023-07-16T11:26:01;3.00;;;1.85;;
46377;SDS011;32083;47.360;9.650;2023-07-16T11:28:36;1.85;;;1.50;;
46377;SDS011;32083;47.360;9.650;2023-07-16T11:31:16;2.25;;;1.58;;
46377;SDS011;32083;47.360;9.650;2023-07-16T11:33:46;3.90;;;2.15;;
46377;SDS011;32083;47.360;9.650;2023-07-16T11:36:12;1.98;;;1.75;;
46377;SDS011;32083;47.360;9.650;2023-07-16T11:38:39;2.10;;;1.75;;
46377;SDS011;32083;47.360;9.650;2023-07-16T11:41:05;2.45;;;1.88;;
46377;SDS011;32083;47.360;9.650;2023-07-16T11:43:34;1.90;;;1.67;;
46377;SDS011;32083;47.360;9.650;2023-07-16T11:46:01;2.08;;;1.80;;
46377;SDS011;32083;47.360;9.650;2023-07-16T11:48:28;1.88;;;1.70;;
46377;SDS011;32083;47.360;9.650;2023-07-16T11:50:54;1.98;;;1.73;;
46377;SDS011;32083;47.360;9.650;2023-07-16T11:53:20;2.65;;;1.50;;
46377;SDS011;32083;47.360;9.650;2023-07-16T11:55:46;2.25;;;1.67;;
46377;SDS011;32083;47.360;9.650;2023-07-16T11:58:12;3.33;;;1.80;;
46377;SDS011;32083;47.360;9.650;2023-07-16T12:00:38;3.53;;;1.80;;
46377;SDS011;32083;47.360;9.650;2023-07-16T12:03:04;2.72;;;1.50;;
46377;SDS011;32083;47.360;9.650;2023-07-16T12:05:30;1.95;;;1.40;;
46377;SDS011;32083;47.360;9.650;2023-07-16T12:07:56;2.25;;;2.00;;
46377;SDS011;32083;47.360;9.650;2023-07-16T12:10:22;1.65;;;1.52;;
46377;SDS011;32083;47.360;9.650;2023-07-16T12:12:48;3.08;;;1.83;;
46377;SDS011;32083;47.360;9.650;2023-07-16T12:15:14;2.65;;;1.83;;
46377;SDS011;32083;47.360;9.650;2023-07-16T12:17:40;2.35;;;2.08;;
46377;SDS011;32083;47.360;9.650;2023-07-16T12:20:06;4.43;;;2.20;;
46377;SDS011;32083;47.360;9.650;2023-07-16T12:22:32;1.90;;;1.80;;
46377;SDS011;32083;47.360;9.650;2023-07-16T12:24:58;3.35;;;2.00;;
46377;SDS011;32083;47.360;9.650;2023-07-16T12:27:24;4.13;;;2.50;;
46377;SDS011;32083;47.360;9.650;2023-07-16T12:29:51;2.90;;;2.10;;
46377;SDS011;32083;47.360;9.650;2023-07-16T12:32:17;3.55;;;2.45;;
46377;SDS011;32083;47.360;9.650;2023-07-16T12:34:43;2.83;;;1.73;;
46377;SDS011;32083;47.360;9.650;2023-07-16T12:37:09;5.43;;;2.30;;
46377;SDS011;32083;47.360;9.650;2023-07-16T12:39:35;3.30;;;2.30;;
46377;SDS011;32083;47.360;9.650;2023-07-16T12:42:02;3.33;;;2.83;;
46377;SDS011;32083;47.360;9.650;2023-07-16T12:44:28;2.67;;;2.17;;
46377;SDS011;32083;47.360;9.650;2023-07-16T12:46:55;2.00;;;1.80;;
46377;SDS011;32083;47.360;9.650;2023-07-16T12:49:21;2.13;;;1.70;;
46377;SDS011;32083;47.360;9.650;2023-07-16T12:51:47;3.15;;;1.88;;
46377;SDS011;32083;47.360;9.650;2023-07-16T12:54:13;4.07;;;1.83;;
46377;SDS011;32083;47.360;9.650;2023-07-16T12:56:39;2.95;;;2.22;;
46377;SDS011;32083;47.360;9.650;2023-07-16T12:59:05;2.80;;;1.98;;
46377;SDS011;32083;47.360;9.650;2023-07-16T13:01:31;2.25;;;1.73;;
46377;SDS011;32083;47.360;9.650;2023-07-16T13:03:57;2.05;;;1.85;;
46377;SDS011;32083;47.360;9.650;2023-07-16T13:06:23;3.97;;;2.42;;
46377;SDS011;32083;47.360;9.650;2023-07-16T13:08:49;2.58;;;1.83;;
46377;SDS011;32083;47.360;9.650;2023-07-16T13:11:15;2.60;;;1.90;;
46377;SDS011;32083;47.360;9.650;2023-07-16T13:13:41;4.57;;;2.50;;
46377;SDS011;32083;47.360;9.650;2023-07-16T13:16:09;3.47;;;1.85;;
46377;SDS011;32083;47.360;9.650;2023-07-16T13:18:35;3.40;;;1.98;;
46377;SDS011;32083;47.360;9.650;2023-07-16T13:21:00;2.60;;;1.90;;
46377;SDS011;32083;47.360;9.650;2023-07-16T13:23:26;1.83;;;1.50;;
46377;SDS011;32083;47.360;9.650;2023-07-16T13:25:52;2.67;;;1.80;;
46377;SDS011;32083;47.360;9.650;2023-07-16T13:28:18;1.85;;;1.75;;
46377;SDS011;32083;47.360;9.650;2023-07-16T13:30:45;2.22;;;1.63;;
46377;SDS011;32083;47.360;9.650;2023-07-16T13:33:11;5.32;;;1.90;;
46377;SDS011;32083;47.360;9.650;2023-07-16T13:35:37;2.53;;;1.73;;
46377;SDS011;32083;47.360;9.650;2023-07-16T13:38:03;3.63;;;2.13;;
46377;SDS011;32083;47.360;9.650;2023-07-16T13:40:28;1.80;;;1.30;;
46377;SDS011;32083;47.360;9.650;2023-07-16T13:42:54;2.47;;;2.10;;
46377;SDS011;32083;47.360;9.650;2023-07-16T13:45:20;3.35;;;1.95;;
46377;SDS011;32083;47.360;9.650;2023-07-16T13:47:46;1.80;;;1.60;;
46377;SDS011;32083;47.360;9.650;2023-07-16T13:50:14;4.13;;;1.80;;
46377;SDS011;32083;47.360;9.650;2023-07-16T13:52:40;2.85;;;1.58;;
46377;SDS011;32083;47.360;9.650;2023-07-16T13:55:06;2.17;;;1.50;;
46377;SDS011;32083;47.360;9.650;2023-07-16T13:57:32;2.78;;;1.77;;
46377;SDS011;32083;47.360;9.650;2023-07-16T13:59:58;2.28;;;1.58;;
46377;SDS011;32083;47.360;9.650;2023-07-16T14:02:25;2.08;;;1.88;;
46377;SDS011;32083;47.360;9.650;2023-07-16T14:04:51;3.15;;;2.00;;
46377;SDS011;32083;47.360;9.650;2023-07-16T14:07:17;2.90;;;2.30;;
46377;SDS011;32083;47.360;9.650;2023-07-16T14:09:43;2.75;;;1.63;;
46377;SDS011;32083;47.360;9.650;2023-07-16T14:12:09;3.05;;;2.03;;
46377;SDS011;32083;47.360;9.650;2023-07-16T14:14:35;3.30;;;1.92;;
46377;SDS011;32083;47.360;9.650;2023-07-16T14:17:01;1.90;;;1.70;;
46377;SDS011;32083;47.360;9.650;2023-07-16T14:19:27;2.75;;;2.28;;
46377;SDS011;32083;47.360;9.650;2023-07-16T14:21:54;2.88;;;1.73;;
46377;SDS011;32083;47.360;9.650;2023-07-16T14:24:20;1.98;;;1.77;;
46377;SDS011;32083;47.360;9.650;2023-07-16T14:26:46;3.03;;;2.33;;
46377;SDS011;32083;47.360;9.650;2023-07-16T14:29:14;2.03;;;1.58;;
46377;SDS011;32083;47.360;9.650;2023-07-16T14:31:40;2.33;;;1.67;;
46377;SDS011;32083;47.360;9.650;2023-07-16T14:34:06;2.83;;;1.63;;
46377;SDS011;32083;47.360;9.650;2023-07-16T14:36:32;3.10;;;2.10;;
46377;SDS011;32083;47.360;9.650;2023-07-16T14:38:58;2.08;;;1.58;;
46377;SDS011;32083;47.360;9.650;2023-07-16T14:41:24;2.35;;;2.10;;
46377;SDS011;32083;47.360;9.650;2023-07-16T14:43:50;2.00;;;1.50;;
46377;SDS011;32083;47.360;9.650;2023-07-16T14:46:16;3.55;;;2.47;;
46377;SDS011;32083;47.360;9.650;2023-07-16T14:48:43;2.00;;;1.45;;
46377;SDS011;32083;47.360;9.650;2023-07-16T14:51:09;3.35;;;1.90;;
46377;SDS011;32083;47.360;9.650;2023-07-16T14:53:37;2.30;;;1.90;;
46377;SDS011;32083;47.360;9.650;2023-07-16T14:56:03;3.13;;;2.35;;
46377;SDS011;32083;47.360;9.650;2023-07-16T14:58:31;2.67;;;2.10;;
46377;SDS011;32083;47.360;9.650;2023-07-16T15:00:59;4.15;;;1.90;;
46377;SDS011;32083;47.360;9.650;2023-07-16T15:03:32;2.30;;;2.00;;
46377;SDS011;32083;47.360;9.650;2023-07-16T15:06:00;2.63;;;2.05;;